Terminal Aerodrome Forecast
Issued by NWS

Home | Current Version | Previous Version | Text Only | Print | Product List | Glossary On
Versions: 1 2 3 4 5 6 7 8 9 10 11 12 13 14
359
FTUS43 KJKL 261921 AAA
TAFSME
TAF AMD
KSME 261921Z 2619/2718 22008KT P6SM SCT019 BKN040 BKN070
     FM262200 VRB05KT 5SM -SHRA OVC030
     FM270000 20005KT P6SM VCSH BKN030
     FM270600 VRB04KT P6SM BKN050=

USA.gov is the U.S. government's official web portal to all federal, state and local government web resources and services.